Time;durP1;ratioP1;P1;durP2;ratioP2;P2;SDS_P1;SDS_P2;PMS_P1;PMS_P2;Temp;Humidity;BMP_temperature;BMP_pressure;BME280_temperature;BME280_humidity;BME280_pressure;Samples;Min_cycle;Max_cycle;Signal;HPM_P1;HPM_P2
2023/10/18 00:02:02;;;;;;;2.25;1.17;;;;;;;-145.63;53.25;39380.19;5045809;28;20029;-68
2023/10/18 00:04:28;;;;;;;2.03;1.10;;;;;;;-145.63;53.20;39372.34;5046184;28;20025;-69
2023/10/18 00:06:54;;;;;;;2.17;1.55;;;;;;;-145.63;52.91;39409.53;5045882;28;20025;-68
2023/10/18 00:12:07;;;;;;;1.60;1.42;;;;;;;-145.63;53.17;39401.69;5043127;28;20029;-67
2023/10/18 00:14:32;;;;;;;3.00;1.30;;;;;;;-145.63;53.06;39401.69;5045542;28;20028;-69
2023/10/18 00:16:59;;;;;;;1.55;1.35;;;;;;;-145.63;53.31;39403.66;5045428;28;20017;-67
2023/10/18 00:19:26;;;;;;;2.58;1.20;;;;;;;-145.63;52.92;39440.81;5045588;28;20124;-68
2023/10/18 00:21:52;;;;;;;6.28;1.40;;;;;;;-145.63;53.16;39391.91;5038480;28;20274;-69
2023/10/18 00:24:18;;;;;;;1.92;1.38;;;;;;;-145.63;53.17;39370.41;5051108;28;20037;-69
2023/10/18 00:26:44;;;;;;;1.20;0.90;;;;;;;-145.63;53.56;39388.00;5059735;28;20029;-70
2023/10/18 00:29:10;;;;;;;1.88;1.17;;;;;;;-145.63;53.48;39399.75;5045895;28;20031;-71
2023/10/18 00:31:36;;;;;;;1.50;1.15;;;;;;;-145.63;53.18;39376.28;5048616;28;20120;-70
2023/10/18 00:34:04;;;;;;;0.95;0.93;;;;;;;-145.63;52.54;39389.97;5045279;28;20087;-69
2023/10/18 00:36:31;;;;;;;1.30;1.10;;;;;;;-145.63;52.65;39389.97;5045264;28;20030;-70
2023/10/18 00:38:58;;;;;;;2.70;1.98;;;;;;;-145.63;52.58;39388.00;5051943;28;20047;-71
2023/10/18 00:41:32;;;;;;;1.90;1.10;;;;;;;-145.63;52.49;39343.03;5045439;28;20030;-71
2023/10/18 00:43:59;;;;;;;3.00;1.30;;;;;;;-145.63;52.47;39431.03;5045017;28;20068;-70
2023/10/18 00:46:28;;;;;;;3.30;1.40;;;;;;;-145.63;52.08;39366.50;5045099;28;20022;-70
2023/10/18 00:48:54;;;;;;;3.03;1.13;;;;;;;-145.63;52.34;39401.69;5043777;28;20314;-71
2023/10/18 00:51:24;;;;;;;2.42;1.00;;;;;;;-145.63;52.01;39364.53;5042536;28;20036;-69
2023/10/18 00:53:51;;;;;;;2.10;1.40;;;;;;;-145.63;52.02;39436.91;5045067;28;20045;-68
2023/10/18 00:56:17;;;;;;;2.95;1.30;;;;;;;-145.63;52.24;39366.50;5057633;28;20336;-69
2023/10/18 00:58:47;;;;;;;1.88;1.05;;;;;;;-145.63;52.76;39389.97;5048005;28;20092;-68
2023/10/18 01:01:13;;;;;;;1.40;1.15;;;;;;;-145.63;51.97;39391.91;5044716;28;20021;-69
2023/10/18 01:03:45;;;;;;;2.20;1.10;;;;;;;-145.63;51.78;39378.22;5044138;28;20119;-68
2023/10/18 01:06:17;;;;;;;1.10;1.00;;;;;;;-145.63;52.74;39399.75;5044532;28;20040;-68
2023/10/18 01:08:47;;;;;;;1.92;1.20;;;;;;;-145.63;52.25;39380.19;5044814;28;20051;-68
2023/10/18 01:11:23;;;;;;;2.42;1.58;;;;;;;-145.63;52.08;39391.91;5043525;28;20205;-68
2023/10/18 01:13:49;;;;;;;2.22;1.35;;;;;;;-145.63;52.53;39382.13;5044270;28;20440;-68
2023/10/18 01:16:35;;;;;;;2.10;1.00;;;;;;;-145.63;52.34;39411.47;5044498;28;20037;-69
2023/10/18 01:19:01;;;;;;;1.75;1.00;;;;;;;-145.63;52.69;39389.97;5043360;28;20301;-68
2023/10/18 01:21:27;;;;;;;2.30;1.00;;;;;;;-145.63;52.10;39413.44;5043460;28;20099;-68
2023/10/18 01:23:56;;;;;;;1.65;1.30;;;;;;;-145.63;51.85;39388.00;5043761;28;20040;-68
2023/10/18 01:26:38;;;;;;;1.40;1.00;;;;;;;-145.63;52.43;39472.09;5044353;28;20048;-68
2023/10/18 01:29:04;;;;;;;3.97;1.08;;;;;;;-145.63;52.05;39372.34;5043654;28;20021;-68
2023/10/18 01:31:31;;;;;;;1.20;1.00;;;;;;;-145.63;52.46;39372.34;5043745;28;20038;-68
2023/10/18 01:33:57;;;;;;;3.25;1.30;;;;;;;-145.63;52.19;39372.34;5044150;28;20076;-69
2023/10/18 01:36:23;;;;;;;1.63;1.10;;;;;;;-145.63;52.49;39391.91;5044190;28;20041;-68
2023/10/18 01:38:54;;;;;;;1.20;1.10;;;;;;;-145.63;52.23;39399.75;5043926;28;20186;-68
2023/10/18 01:41:29;;;;;;;1.45;0.90;;;;;;;-145.63;51.95;39388.00;5044185;28;20022;-69
2023/10/18 01:44:01;;;;;;;1.45;0.90;;;;;;;-145.63;51.91;39382.13;5043601;28;20032;-68
2023/10/18 01:46:26;;;;;;;1.00;0.80;;;;;;;-145.63;51.87;39358.66;5043861;28;20241;-68
2023/10/18 01:48:52;;;;;;;3.08;1.17;;;;;;;-145.63;52.08;39344.97;5043664;28;20026;-69
2023/10/18 01:51:22;;;;;;;1.10;1.00;;;;;;;-145.63;51.75;39386.06;5043283;28;20085;-68
2023/10/18 01:53:50;;;;;;;1.92;1.30;;;;;;;-145.63;51.87;39403.66;5043755;28;20127;-69
2023/10/18 01:56:19;;;;;;;3.67;1.00;;;;;;;-145.63;52.33;39370.41;5051923;28;20088;-67
2023/10/18 01:58:46;;;;;;;1.60;1.20;;;;;;;-145.63;51.56;39376.28;5046940;28;20022;-68
2023/10/18 02:01:13;;;;;;;1.83;1.20;;;;;;;-145.63;51.80;39374.31;5043473;28;20163;-69
2023/10/18 02:03:42;;;;;;;1.33;0.98;;;;;;;-145.63;51.31;39382.13;5043191;28;20055;-68
2023/10/18 02:06:08;;;;;;;1.25;1.15;;;;;;;-145.63;51.21;39399.75;5043878;28;20079;-68
2023/10/18 02:08:34;;;;;;;1.23;1.05;;;;;;;-145.63;51.10;38942.13;5042235;28;20305;-69
2023/10/18 02:11:05;;;;;;;1.92;1.10;;;;;;;-145.63;51.26;39380.19;5043674;28;20029;-68
2023/10/18 02:13:31;;;;;;;1.58;1.08;;;;;;;-145.63;50.90;39376.28;5043171;28;20096;-69
2023/10/18 02:15:57;;;;;;;1.95;1.20;;;;;;;-145.63;51.18;39407.56;5043360;28;20040;-67
2023/10/18 02:18:24;;;;;;;2.42;1.00;;;;;;;-145.63;51.48;39423.22;5043356;28;20060;-67
2023/10/18 02:21:09;;;;;;;1.75;1.10;;;;;;;-145.63;51.47;39391.91;5042093;28;20059;-68
2023/10/18 02:23:35;;;;;;;3.30;1.20;;;;;;;-145.63;51.66;39391.91;5042576;28;20345;-67
2023/10/18 02:26:09;;;;;;;1.65;1.13;;;;;;;-145.63;51.51;39399.75;5043038;28;20104;-68
2023/10/18 02:28:36;;;;;;;3.72;1.20;;;;;;;-145.63;51.22;39378.22;5043150;28;20053;-69
2023/10/18 02:33:38;;;;;;;1.30;1.00;;;;;;;-145.63;51.71;39374.31;5029220;28;20021;-69
2023/10/18 02:36:06;;;;;;;1.50;1.10;;;;;;;-145.63;52.23;39391.91;5042562;28;20029;-69
2023/10/18 02:38:35;;;;;;;2.17;1.00;;;;;;;-145.63;51.90;39374.31;5043286;28;20135;-71
2023/10/18 02:41:04;;;;;;;3.67;1.15;;;;;;;-145.63;51.56;39434.94;5043049;28;20021;-68
2023/10/18 02:43:30;;;;;;;2.08;1.08;;;;;;;-145.63;51.64;39395.84;5042893;28;20021;-67
2023/10/18 02:45:56;;;;;;;2.13;1.00;;;;;;;-145.63;51.66;39348.88;5042665;28;20029;-68
2023/10/18 02:48:24;;;;;;;2.75;1.02;;;;;;;-145.63;51.67;39393.88;5041795;28;20190;-69
2023/10/18 02:50:57;;;;;;;2.28;1.20;;;;;;;-145.63;51.73;39384.09;5042606;28;20056;-67
2023/10/18 02:53:23;;;;;;;1.92;1.00;;;;;;;-145.63;51.75;39384.09;5042684;28;20053;-68
2023/10/18 02:55:55;;;;;;;2.65;1.15;;;;;;;-145.63;52.01;39446.69;5042554;28;20116;-69
2023/10/18 02:58:22;;;;;;;2.22;1.00;;;;;;;-145.63;51.56;39411.47;5042902;28;20063;-68
2023/10/18 03:00:50;;;;;;;2.03;1.23;;;;;;;-145.63;51.94;39393.88;5042364;28;20052;-68
2023/10/18 03:03:15;;;;;;;2.35;1.10;;;;;;;-145.63;51.85;39376.28;5045140;28;20029;-67
2023/10/18 03:05:41;;;;;;;1.98;1.50;;;;;;;-145.63;51.65;39348.88;5046684;28;20112;-67
2023/10/18 03:08:10;;;;;;;1.75;1.08;;;;;;;-145.63;51.78;39399.75;5047086;28;20029;-68
2023/10/18 03:10:47;;;;;;;2.92;1.20;;;;;;;-145.63;52.12;39389.97;5046413;28;20029;-68
2023/10/18 03:13:13;;;;;;;1.92;1.10;;;;;;;-145.63;51.91;39399.75;5046721;28;20059;-69
2023/10/18 03:16:03;;;;;;;1.30;1.10;;;;;;;-145.63;51.64;39382.13;5046331;28;20045;-69
2023/10/18 03:18:29;;;;;;;2.58;1.38;;;;;;;-145.63;51.71;39364.53;5046753;28;20021;-69
2023/10/18 03:20:57;;;;;;;1.90;1.38;;;;;;;-145.63;51.50;39393.88;5046080;28;20051;-68
2023/10/18 03:23:26;;;;;;;3.60;1.20;;;;;;;-145.63;51.74;39403.66;5045747;28;20033;-68
2023/10/18 03:26:08;;;;;;;1.80;1.40;;;;;;;-145.63;51.77;39376.28;5046097;28;20105;-68
2023/10/18 03:28:40;;;;;;;;;;;;;;;-145.63;51.82;39370.41;5046765;28;20033;-68
2023/10/18 03:31:27;;;;;;;2.13;1.10;;;;;;;-145.63;51.95;39380.19;5041523;28;20117;-69
2023/10/18 03:34:03;;;;;;;1.95;1.10;;;;;;;-145.63;51.81;39374.31;5046152;28;20033;-67
2023/10/18 03:36:34;;;;;;;2.88;1.02;;;;;;;-145.63;51.92;39397.78;5046124;28;20037;-69
2023/10/18 03:39:00;;;;;;;3.08;1.20;;;;;;;-145.63;51.47;39368.44;5046210;28;20317;-69
2023/10/18 03:41:33;;;;;;;4.60;1.30;;;;;;;-145.63;51.62;39407.56;5045585;28;20031;-67
2023/10/18 03:44:09;;;;;;;1.75;1.02;;;;;;;-145.63;51.79;39374.31;5045985;28;20033;-67
2023/10/18 03:49:17;;;;;;;2.78;1.52;;;;;;;-145.63;51.89;39376.28;5045963;28;20060;-69
2023/10/18 03:51:47;;;;;;;1.90;1.30;;;;;;;-145.63;51.82;39391.91;5045685;28;20086;-68
2023/10/18 03:54:15;;;;;;;1.67;0.98;;;;;;;-145.63;51.56;39419.31;5045952;28;20037;-69
2023/10/18 03:56:43;;;;;;;1.50;1.10;;;;;;;-145.63;51.77;39401.69;5045960;28;20049;-67
2023/10/18 03:59:19;;;;;;;3.45;1.35;;;;;;;-145.63;51.89;39391.91;5046027;28;20079;-67
2023/10/18 04:04:50;;;;;;;3.65;1.30;;;;;;;-145.63;52.05;39411.47;5007209;28;20034;-68
2023/10/18 04:07:16;;;;;;;4.18;1.20;;;;;;;-145.63;51.46;39393.88;5037035;28;20043;-69
2023/10/18 04:12:27;;;;;;;1.70;1.13;;;;;;;-145.63;51.39;39425.16;5045327;28;20088;-67
2023/10/18 04:14:58;;;;;;;1.80;1.42;;;;;;;-145.63;51.75;39401.69;5043459;28;20021;-68
2023/10/18 04:20:22;;;;;;;2.63;1.30;;;;;;;-145.63;52.02;39382.13;5044679;28;20059;-66
2023/10/18 04:22:51;;;;;;;2.72;1.27;;;;;;;-145.63;51.64;39389.97;5040821;28;20056;-67
2023/10/18 04:25:25;;;;;;;4.00;1.63;;;;;;;-145.63;52.03;39421.25;5045194;28;20022;-70
2023/10/18 04:27:57;;;;;;;2.30;1.45;;;;;;;-145.63;51.87;39417.34;5045300;28;20029;-67
2023/10/18 04:30:29;;;;;;;2.42;1.58;;;;;;;-145.63;51.79;39395.84;5044972;28;20305;-67
2023/10/18 04:35:55;;;;;;;3.08;1.40;;;;;;;-145.63;51.62;39388.00;5032889;28;20109;-68
2023/10/18 04:38:30;;;;;;;3.85;1.30;;;;;;;-145.63;51.75;39411.47;5025273;28;20025;-67
2023/10/18 04:43:32;;;;;;;4.65;1.65;;;;;;;-145.63;51.42;39436.91;5044698;28;20033;-67
2023/10/18 04:46:02;;;;;;;3.10;1.40;;;;;;;-145.63;51.35;39397.78;5044110;28;20025;-67
2023/10/18 04:51:26;;;;;;;3.58;1.65;;;;;;;-145.63;50.87;39423.22;5044787;28;20029;-66
2023/10/18 04:54:00;;;;;;;2.05;1.35;;;;;;;-145.63;51.51;39384.09;5044441;28;20057;-65
2023/10/18 04:56:32;;;;;;;2.55;1.65;;;;;;;-145.63;51.39;39382.13;5025278;28;20033;-67
2023/10/18 04:59:06;;;;;;;2.72;1.75;;;;;;;-145.63;51.20;39403.66;5041546;28;20048;-67
2023/10/18 05:01:36;;;;;;;3.45;1.40;;;;;;;-145.63;51.48;39395.84;5044279;28;20041;-68
2023/10/18 05:04:48;;;;;;;3.42;1.70;;;;;;;-145.63;51.45;39389.97;5044120;28;20097;-67
2023/10/18 05:06:56;;;;;;;6.40;1.92;;;;;;;-145.63;51.08;39409.53;5039816;28;20053;-67
2023/10/18 05:09:34;;;;;;;2.40;1.60;;;;;;;-145.63;51.39;39368.44;5042996;28;20348;-68
2023/10/18 05:12:48;;;;;;;5.53;1.92;;;;;;;-145.63;51.26;39472.09;5036850;28;20048;-68
2023/10/18 05:19:55;;;;;;;4.70;1.50;;;;;;;-145.63;51.26;39393.88;5043881;28;20046;-65
2023/10/18 05:22:24;;;;;;;3.25;1.70;;;;;;;-145.63;51.30;39397.78;5044222;28;20045;-65
2023/10/18 05:27:45;;;;;;;3.80;1.65;;;;;;;-145.63;51.16;39397.78;5043653;28;20096;-65
2023/10/18 05:30:15;;;;;;;1.90;1.58;;;;;;;-145.63;51.50;39397.78;5043847;28;20029;-65
2023/10/18 05:33:02;;;;;;;3.50;1.33;;;;;;;-145.63;51.28;39380.19;5024623;28;20343;-65
2023/10/18 05:37:59;;;;;;;1.80;1.63;;;;;;;-145.63;51.35;39411.47;5043616;28;20087;-65
2023/10/18 05:43:29;;;;;;;3.38;1.70;;;;;;;-145.63;51.56;39380.19;5043781;28;20032;-67
2023/10/18 05:45:56;;;;;;;3.47;1.50;;;;;;;-145.63;51.17;39384.09;5043106;28;20025;-67
2023/10/18 05:48:25;;;;;;;3.53;1.50;;;;;;;-145.63;51.13;39391.91;5043309;28;20091;-67
2023/10/18 05:51:21;;;;;;;2.40;1.65;;;;;;;-145.63;51.66;39399.75;5043164;28;20338;-66
2023/10/18 05:53:47;;;;;;;1.85;1.55;;;;;;;-145.63;51.53;39360.63;5023490;28;20306;-66
2023/10/18 05:56:14;;;;;;;2.67;1.60;;;;;;;-145.63;51.89;39415.38;5041651;28;20045;-67
2023/10/18 05:58:39;;;;;;;3.60;1.63;;;;;;;-145.63;51.75;39397.78;5043442;28;20029;-67
2023/10/18 06:01:05;;;;;;;3.45;1.70;;;;;;;-145.63;51.20;39413.44;5041034;28;20025;-65
2023/10/18 06:03:39;;;;;;;4.07;1.80;;;;;;;-145.63;51.33;39372.34;5038360;28;20187;-67
2023/10/18 06:06:07;;;;;;;4.43;1.83;;;;;;;-145.63;51.35;39376.28;5043392;28;20078;-66
2023/10/18 06:08:33;;;;;;;1.60;1.40;;;;;;;-145.63;51.09;39395.84;5043150;28;20224;-66
2023/10/18 06:11:08;;;;;;;2.60;1.52;;;;;;;-145.63;51.04;39431.03;5042274;28;20025;-68
2023/10/18 06:13:37;;;;;;;2.78;2.03;;;;;;;-145.63;51.22;39423.22;5042459;28;20305;-69
2023/10/18 06:16:18;;;;;;;2.85;1.50;;;;;;;-145.63;50.91;39415.38;5042992;28;20033;-66
2023/10/18 06:18:48;;;;;;;3.90;1.92;;;;;;;-145.63;50.95;39440.81;5042845;28;20302;-66
2023/10/18 06:21:21;;;;;;;2.08;1.40;;;;;;;-145.63;51.20;39382.13;5042694;28;20029;-65
2023/10/18 06:23:54;;;;;;;3.83;1.42;;;;;;;-145.63;50.97;39399.75;5040558;28;20150;-65
2023/10/18 06:26:30;;;;;;;2.05;1.63;;;;;;;-145.63;51.33;39403.66;5042772;28;20093;-67
2023/10/18 06:29:02;;;;;;;2.40;2.03;;;;;;;-145.63;51.32;39372.34;5041866;28;20056;-66
2023/10/18 06:31:29;;;;;;;2.40;1.70;;;;;;;-145.63;51.41;39372.34;5042637;28;20029;-65
2023/10/18 06:33:57;;;;;;;2.90;1.85;;;;;;;-145.63;51.15;39389.97;5041996;28;20052;-66
2023/10/18 06:36:31;;;;;;;2.78;1.58;;;;;;;-145.63;50.83;39399.75;5042288;28;20060;-66
2023/10/18 06:38:58;;;;;;;3.72;2.10;;;;;;;-145.63;50.66;39384.09;5042659;28;20026;-70
2023/10/18 06:41:29;;;;;;;2.78;1.60;;;;;;;-145.63;50.30;39356.72;5042651;28;20044;-67
2023/10/18 06:43:58;;;;;;;3.35;1.65;;;;;;;-145.63;50.44;39388.00;5041711;28;20025;-65
2023/10/18 06:46:27;;;;;;;2.65;1.63;;;;;;;-145.63;50.18;39388.00;5042702;28;20109;-67
2023/10/18 06:48:55;;;;;;;2.83;2.05;;;;;;;-145.63;50.77;39325.41;5042449;28;20036;-68
2023/10/18 06:51:33;;;;;;;2.20;1.98;;;;;;;-145.63;50.74;39333.25;5042547;28;20321;-68
2023/10/18 06:54:03;;;;;;;3.28;2.33;;;;;;;-145.63;50.02;39368.44;5042178;28;20155;-66
2023/10/18 06:56:33;;;;;;;4.07;2.00;;;;;;;-145.63;49.85;39356.72;5031500;28;20041;-67
2023/10/18 06:59:08;;;;;;;3.10;2.10;;;;;;;-145.63;50.07;39374.31;5042522;28;20048;-68
2023/10/18 07:01:41;;;;;;;5.72;2.50;;;;;;;-145.63;50.17;39344.97;5041528;28;20374;-67
2023/10/18 07:04:31;;;;;;;5.50;2.30;;;;;;;-145.63;49.92;39389.97;5039712;28;20321;-68
2023/10/18 07:06:57;;;;;;;5.13;1.80;;;;;;;-145.63;49.50;39341.06;5042585;28;20034;-68
2023/10/18 07:09:26;;;;;;;3.08;1.60;;;;;;;-145.63;49.44;39323.47;5042229;28;20345;-67
2023/10/18 07:11:53;;;;;;;4.97;2.20;;;;;;;-145.63;49.67;39329.34;5042051;28;20076;-67
2023/10/18 07:14:20;;;;;;;3.90;1.83;;;;;;;-145.63;49.28;39348.88;5037896;28;20373;-68
2023/10/18 07:16:49;;;;;;;3.22;1.88;;;;;;;-145.63;49.00;39360.63;5040432;28;20052;-67
2023/10/18 07:21:51;;;;;;;2.90;1.67;;;;;;;-145.63;49.08;39325.41;5040058;28;20044;-67
2023/10/18 07:24:20;;;;;;;2.45;1.85;;;;;;;-145.63;48.99;39344.97;5041233;28;20025;-68
2023/10/18 07:26:47;;;;;;;3.53;1.70;;;;;;;-145.63;48.41;39344.97;5024407;28;20221;-67
2023/10/18 07:29:16;;;;;;;2.45;1.50;;;;;;;-145.63;48.31;39335.19;5042396;28;20052;-68
2023/10/18 07:31:44;;;;;;;4.22;1.80;;;;;;;-145.63;47.80;39370.41;5041876;28;20071;-67
2023/10/18 07:34:17;;;;;;;4.53;1.95;;;;;;;-145.63;47.55;39337.16;5041870;28;20355;-66
2023/10/18 07:36:45;;;;;;;2.88;1.90;;;;;;;-145.63;47.57;39341.06;5044532;28;20037;-67
2023/10/18 07:39:11;;;;;;;3.90;2.10;;;;;;;-145.63;47.36;39321.50;5041878;28;20072;-67
2023/10/18 07:41:38;;;;;;;4.93;2.05;;;;;;;-145.63;47.37;39325.41;5041813;28;20057;-68
2023/10/18 07:44:07;;;;;;;3.45;1.75;;;;;;;-145.63;46.10;39343.03;5040764;28;20025;-67
2023/10/18 07:46:41;;;;;;;7.20;1.98;;;;;;;-145.63;46.31;39341.06;5041859;28;20029;-67
2023/10/18 07:49:11;;;;;;;2.50;1.92;;;;;;;-145.63;46.35;39311.72;5044058;28;20034;-67
2023/10/18 07:51:43;;;;;;;3.50;1.92;;;;;;;-145.63;45.91;39298.03;5045697;28;20025;-68
2023/10/18 07:54:14;;;;;;;2.47;1.50;;;;;;;-145.63;44.40;39317.59;5045241;28;20025;-68
2023/10/18 07:56:50;;;;;;;4.38;1.77;;;;;;;-145.63;44.82;39337.16;5045907;28;20037;-68
2023/10/18 07:59:30;;;;;;;3.25;1.90;;;;;;;-145.63;44.42;39315.66;5043880;28;20088;-67
2023/10/18 08:02:23;;;;;;;3.63;1.52;;;;;;;-145.63;44.65;39343.03;5042090;28;20036;-67
2023/10/18 08:04:51;;;;;;;4.88;1.40;;;;;;;-145.63;44.20;39337.16;5044532;28;20018;-71
2023/10/18 08:07:20;;;;;;;4.13;1.90;;;;;;;-145.63;44.52;39337.16;5045760;28;20025;-69
2023/10/18 08:09:57;;;;;;;2.28;1.70;;;;;;;-145.63;44.41;39346.94;5045565;28;20124;-67
2023/10/18 08:12:30;;;;;;;6.05;1.67;;;;;;;-145.63;43.44;39329.34;5045713;28;20021;-67
2023/10/18 08:14:57;;;;;;;3.63;2.00;;;;;;;-145.63;43.51;39315.66;5043188;28;20055;-68
2023/10/18 08:17:29;;;;;;;4.47;2.03;;;;;;;-145.63;43.74;39327.38;5045130;28;20029;-68
2023/10/18 08:19:58;;;;;;;3.53;1.70;;;;;;;-145.63;43.83;39321.50;5045306;28;20029;-67
2023/10/18 08:22:26;;;;;;;1.85;1.52;;;;;;;-145.63;42.74;39370.41;5044570;28;20276;-67
2023/10/18 08:24:52;;;;;;;2.70;1.40;;;;;;;-145.63;43.26;39294.13;5042054;28;20044;-67
2023/10/18 08:27:18;;;;;;;1.45;1.20;;;;;;;-145.63;42.57;39331.28;5044955;28;20341;-67
2023/10/18 08:29:46;;;;;;;2.35;1.40;;;;;;;-145.63;41.67;39307.81;5044706;28;20088;-67
2023/10/18 08:32:16;;;;;;;4.22;1.67;;;;;;;-145.63;42.46;39032.06;5041964;28;20224;-70
2023/10/18 08:34:43;;;;;;;3.03;1.50;;;;;;;-145.63;42.20;39339.13;5045066;28;20063;-67
2023/10/18 08:37:16;;;;;;;4.60;1.60;;;;;;;-145.63;42.70;39296.09;5045001;28;20254;-66
2023/10/18 08:39:55;;;;;;;5.57;1.80;;;;;;;-145.63;42.47;39278.47;5041650;28;20341;-66
2023/10/18 08:42:30;;;;;;;3.03;1.50;;;;;;;-145.63;41.74;39309.78;5044486;28;20032;-67
2023/10/18 08:44:56;;;;;;;2.38;1.40;;;;;;;-145.63;42.18;38783.72;5044485;28;20048;-67
2023/10/18 08:47:29;;;;;;;3.08;1.50;;;;;;;-145.63;41.55;39290.22;5044061;28;20044;-67
2023/10/18 08:49:56;;;;;;;5.50;1.77;;;;;;;-145.63;40.92;39213.94;5044554;28;20025;-68
2023/10/18 08:52:30;;;;;;;3.10;1.52;;;;;;;-145.63;40.29;39319.56;5044630;28;20458;-68
2023/10/18 08:54:59;;;;;;;2.00;1.40;;;;;;;-145.63;40.34;39313.69;5044787;28;20099;-68
2023/10/18 08:57:37;;;;;;;4.20;1.67;;;;;;;-145.63;40.19;39253.06;5044551;28;20192;-68
2023/10/18 09:01:02;;;;;;;2.08;1.60;;;;;;;-145.63;39.33;39227.63;5044675;28;20037;-68
2023/10/18 09:02:57;;;;;;;;;;;;;;;-145.63;38.31;39256.97;5026413;28;20072;-68
2023/10/18 09:05:24;;;;;;;2.10;1.52;;;;;;;-145.63;37.99;39221.78;5042758;28;19916;-67
2023/10/18 09:08:03;;;;;;;5.97;2.08;;;;;;;-145.63;39.07;39258.94;5043195;28;20025;-69
2023/10/18 09:10:33;;;;;;;2.30;1.70;;;;;;;-145.63;37.80;39241.31;5041697;28;20049;-68
2023/10/18 09:13:29;;;;;;;7.25;2.20;;;;;;;-145.63;37.35;39255.00;5041623;28;20035;-68
2023/10/18 09:18:21;;;;;;;4.05;2.30;;;;;;;-145.63;39.70;39315.66;5044218;28;20025;-68
2023/10/18 09:20:47;;;;;;;6.03;2.20;;;;;;;-145.63;38.63;39309.78;5043817;28;20211;-67
2023/10/18 09:23:24;;;;;;;4.05;2.00;;;;;;;-145.63;39.39;39270.66;5043541;28;20025;-68
2023/10/18 09:26:00;;;;;;;3.40;1.80;;;;;;;-145.63;39.54;39321.50;5042650;28;20110;-66
2023/10/18 09:28:25;;;;;;;4.82;1.80;;;;;;;-145.63;40.26;39372.34;5044315;28;20036;-67
2023/10/18 09:31:10;;;;;;;7.43;2.17;;;;;;;-145.63;40.41;39409.53;5043772;28;20294;-70
2023/10/18 09:33:38;;;;;;;2.40;1.75;;;;;;;-145.63;41.62;39395.84;5043001;28;20084;-66
2023/10/18 09:36:19;;;;;;;2.78;2.22;;;;;;;-145.63;41.93;39256.97;5043585;28;20044;-67
2023/10/18 09:38:48;;;;;;;5.22;1.80;;;;;;;-145.63;42.24;39423.22;5023748;28;20032;-67
2023/10/18 09:41:16;;;;;;;2.50;1.65;;;;;;;-145.63;43.00;39384.09;5041794;28;20040;-69
2023/10/18 09:43:44;;;;;;;3.78;1.95;;;;;;;-145.63;42.55;39436.91;5043153;28;20221;-67
2023/10/18 09:46:10;;;;;;;3.47;1.60;;;;;;;-145.63;42.35;39352.81;5043569;28;20053;-67
2023/10/18 09:48:44;;;;;;;3.17;1.70;;;;;;;-145.63;43.41;39376.28;5043299;28;20033;-68
2023/10/18 09:51:15;;;;;;;1.67;1.05;;;;;;;-145.63;42.51;39335.19;5042582;28;20080;-68
2023/10/18 09:53:49;;;;;;;1.17;1.08;;;;;;;-145.63;42.08;39454.50;5040332;28;20041;-68
2023/10/18 09:56:27;;;;;;;3.90;1.40;;;;;;;-145.63;42.81;39327.38;5043436;28;20022;-68
2023/10/18 09:59:08;;;;;;;2.22;1.45;;;;;;;-145.63;41.98;39344.97;5043660;28;20029;-69
2023/10/18 10:02:20;;;;;;;1.70;1.35;;;;;;;-145.63;42.09;39337.16;5043280;28;20049;-68
2023/10/18 10:04:22;;;;;;;3.53;1.52;;;;;;;-145.63;42.63;39294.13;5036217;28;20076;-68
2023/10/18 10:06:52;;;;;;;2.55;1.60;;;;;;;-145.63;42.31;39366.50;5043064;28;20048;-67
2023/10/18 10:09:19;;;;;;;2.38;1.25;;;;;;;-145.63;42.37;39356.72;5041968;28;20029;-68
2023/10/18 10:11:46;;;;;;;1.40;1.30;;;;;;;-145.63;42.29;39335.19;5042830;28;20329;-67
2023/10/18 10:14:17;;;;;;;1.30;1.20;;;;;;;-145.63;41.13;39403.66;5043070;28;20053;-68
2023/10/18 10:16:52;;;;;;;1.42;1.13;;;;;;;-145.63;41.11;39278.47;5042879;28;20030;-68
2023/10/18 10:19:23;;;;;;;1.77;1.23;;;;;;;-145.63;40.47;39417.34;5042918;28;20030;-67
2023/10/18 10:21:50;;;;;;;1.40;1.13;;;;;;;-145.63;40.13;39344.97;5042290;28;20036;-68
2023/10/18 10:24:35;;;;;;;1.48;1.30;;;;;;;-145.63;40.28;39339.13;5042438;28;20049;-68
2023/10/18 10:27:28;;;;;;;2.83;1.17;;;;;;;-145.63;40.32;39362.59;5042203;28;20025;-69
2023/10/18 10:29:58;;;;;;;1.38;1.05;;;;;;;-145.63;40.16;39352.81;5040280;28;20072;-70
2023/10/18 10:32:24;;;;;;;3.42;1.27;;;;;;;-145.63;40.83;39364.53;5042562;28;20272;-67
2023/10/18 10:35:15;;;;;;;2.53;1.48;;;;;;;-145.63;40.56;39374.31;5042898;28;20039;-69
2023/10/18 10:37:49;;;;;;;1.45;1.30;;;;;;;-145.63;40.24;39360.63;5042385;28;20029;-68
2023/10/18 10:40:19;;;;;;;3.05;1.58;;;;;;;-145.63;40.45;39401.69;5042871;28;20037;-68
2023/10/18 10:42:52;;;;;;;3.03;1.50;;;;;;;-145.63;41.08;39384.09;5042846;28;20029;-67
2023/10/18 10:45:35;;;;;;;4.45;1.70;;;;;;;-145.63;40.57;39397.78;5042474;28;20026;-68
2023/10/18 10:50:59;;;;;;;3.10;1.30;;;;;;;-145.63;41.57;39427.13;5037762;28;20056;-68
2023/10/18 10:53:32;;;;;;;2.88;1.50;;;;;;;-145.63;41.55;39344.97;5042758;28;20069;-68
2023/10/18 10:56:16;;;;;;;2.70;1.50;;;;;;;-145.63;42.16;39360.63;5036510;28;20072;-68
2023/10/18 11:01:44;;;;;;;3.17;1.88;;;;;;;-145.63;41.63;39384.09;5022916;28;20045;-69
2023/10/18 11:04:28;;;;;;;4.18;1.92;;;;;;;-145.63;41.40;39356.72;5041702;28;20215;-67
2023/10/18 11:07:00;;;;;;;2.55;1.60;;;;;;;-145.63;42.07;38637.06;5040942;28;20029;-69
2023/10/18 11:09:38;;;;;;;2.80;1.92;;;;;;;-145.63;41.50;39368.44;5041952;28;20323;-68
2023/10/18 11:12:08;;;;;;;4.30;2.03;;;;;;;-145.63;41.86;39346.94;5041923;28;20065;-69
2023/10/18 11:14:37;;;;;;;2.80;1.95;;;;;;;-145.63;41.63;39370.41;5042164;28;20037;-68
2023/10/18 11:19:44;;;;;;;3.63;1.80;;;;;;;-145.63;41.83;39370.41;5042149;28;20030;-68
2023/10/18 11:22:14;;;;;;;5.03;1.75;;;;;;;-145.63;42.05;39415.38;5035365;28;20026;-69
2023/10/18 11:24:41;;;;;;;3.65;1.90;;;;;;;-145.63;41.88;39388.00;5043803;28;20017;-69
2023/10/18 11:27:08;;;;;;;10.32;2.30;;;;;;;-145.63;41.82;39376.28;5045307;28;20030;-71
2023/10/18 11:29:38;;;;;;;2.78;1.75;;;;;;;-145.63;42.81;39401.69;5045156;28;20041;-70
2023/10/18 11:32:08;;;;;;;2.78;1.65;;;;;;;-145.63;43.21;39384.09;5045490;28;20057;-70
2023/10/18 11:34:51;;;;;;;6.07;1.83;;;;;;;-145.63;42.43;39395.84;5043904;28;20064;-69
2023/10/18 11:37:36;;;;;;;4.78;1.90;;;;;;;-145.63;42.72;39399.75;5043921;28;20071;-68
2023/10/18 11:40:21;;;;;;;5.00;1.70;;;;;;;-145.63;42.37;39440.81;5044588;28;20140;-68
2023/10/18 11:43:09;;;;;;;2.10;1.80;;;;;;;-145.63;42.35;39368.44;5045046;28;20025;-67
2023/10/18 11:45:39;;;;;;;5.75;1.63;;;;;;;-145.63;41.99;39270.66;5044310;28;20253;-67
2023/10/18 11:48:14;;;;;;;3.63;1.85;;;;;;;-145.63;43.21;39399.75;5045469;28;20097;-68
2023/10/18 11:50:53;;;;;;;3.47;1.88;;;;;;;-145.63;42.41;39364.53;5044334;28;20025;-69
2023/10/18 11:53:24;;;;;;;4.43;1.77;;;;;;;-145.63;43.38;39403.66;5042774;28;20045;-68
2023/10/18 11:55:59;;;;;;;6.03;2.20;;;;;;;-145.63;43.22;39376.28;5045419;28;20025;-68
2023/10/18 11:58:26;;;;;;;3.33;2.35;;;;;;;-145.63;42.92;39401.69;5043279;28;20033;-68
2023/10/18 12:03:28;;;;;;;4.38;2.45;;;;;;;-145.63;44.16;39423.22;5045085;28;20037;-68
2023/10/18 12:05:57;;;;;;;5.75;2.50;;;;;;;-145.63;44.17;39399.75;5042104;28;20045;-69
2023/10/18 12:08:33;;;;;;;4.72;2.25;;;;;;;-145.63;44.47;39382.13;5045336;28;20034;-69
2023/10/18 12:11:04;;;;;;;4.68;2.85;;;;;;;-145.63;44.69;39372.34;5045572;28;20021;-68
2023/10/18 12:13:30;;;;;;;6.57;2.38;;;;;;;-145.63;43.92;39386.06;5045289;28;20047;-68
2023/10/18 12:16:00;;;;;;;8.73;2.90;;;;;;;-145.63;44.75;39395.84;5045201;28;20110;-69
2023/10/18 12:18:29;;;;;;;4.03;2.50;;;;;;;-145.63;44.81;39382.13;5045699;28;20029;-68
2023/10/18 12:20:56;;;;;;;3.83;2.38;;;;;;;-145.63;45.51;39374.31;5044502;28;20030;-69
2023/10/18 12:23:22;;;;;;;3.65;2.00;;;;;;;-145.63;46.17;39378.22;5043427;28;20341;-68
2023/10/18 12:25:49;;;;;;;3.88;2.15;;;;;;;-145.63;45.64;39431.03;5044050;28;20037;-68
2023/10/18 12:28:18;;;;;;;5.90;2.15;;;;;;;-145.63;45.22;39388.00;5044760;28;20029;-68
2023/10/18 12:30:52;;;;;;;3.40;1.90;;;;;;;-145.63;46.20;39364.53;5044135;28;20030;-69